createdAt,value
2022-10-08T00:00:14.156Z,3.70
2022-10-08T00:02:40.635Z,3.80
2022-10-08T00:05:07.656Z,4.45
2022-10-08T00:07:34.468Z,3.42
2022-10-08T00:10:01.634Z,2.80
2022-10-08T00:12:28.113Z,2.45
2022-10-08T00:14:54.598Z,2.10
2022-10-08T00:17:21.164Z,2.17
2022-10-08T00:19:47.736Z,1.90
2022-10-08T00:22:14.222Z,1.95
2022-10-08T00:24:41.564Z,2.20
2022-10-08T00:27:08.058Z,2.30
2022-10-08T00:29:34.614Z,2.38
2022-10-08T00:32:01.289Z,2.53
2022-10-08T00:34:27.838Z,2.63
2022-10-08T00:36:55.719Z,2.60
2022-10-08T00:39:24.147Z,2.40
2022-10-08T00:41:54.261Z,2.40
2022-10-08T00:44:59.440Z,2.13
2022-10-08T00:47:47.948Z,2.47
2022-10-08T00:50:22.352Z,2.38
2022-10-08T00:52:55.284Z,2.08
2022-10-08T00:55:23.782Z,2.70
2022-10-08T00:57:52.277Z,2.42
2022-10-08T01:00:25.186Z,2.65
2022-10-08T01:02:53.217Z,2.55
2022-10-08T01:05:34.928Z,2.72
2022-10-08T01:08:14.132Z,2.75
2022-10-08T01:10:53.346Z,2.65
2022-10-08T01:13:35.003Z,2.90
2022-10-08T01:16:21.068Z,2.90
2022-10-08T01:18:53.860Z,2.70
2022-10-08T01:21:37.166Z,2.70
2022-10-08T01:24:12.475Z,2.47
2022-10-08T01:27:02.913Z,2.80
2022-10-08T01:29:42.442Z,3.42
2022-10-08T01:32:19.431Z,3.35
2022-10-08T01:35:00.562Z,4.00
2022-10-08T01:37:32.101Z,3.50
2022-10-08T01:40:02.793Z,3.20
2022-10-08T01:42:34.207Z,3.00
2022-10-08T01:45:05.141Z,2.63
2022-10-08T01:47:33.094Z,2.67
2022-10-08T01:50:15.143Z,2.47
2022-10-08T01:52:50.815Z,2.70
2022-10-08T01:55:27.761Z,2.92
2022-10-08T01:57:59.162Z,3.38
2022-10-08T02:00:25.843Z,3.00
2022-10-08T02:02:55.380Z,3.65
2022-10-08T02:05:26.131Z,3.75
2022-10-08T02:07:54.215Z,3.80
2022-10-08T02:10:25.406Z,3.60
2022-10-08T02:12:52.227Z,3.83
2022-10-08T02:15:37.022Z,3.72
2022-10-08T02:18:15.845Z,4.53
2022-10-08T02:21:03.191Z,4.03
2022-10-08T02:23:40.450Z,3.53
2022-10-08T02:26:21.714Z,3.30
2022-10-08T02:28:57.774Z,3.10
2022-10-08T02:31:33.273Z,2.50
2022-10-08T02:34:15.871Z,3.05
2022-10-08T02:36:45.888Z,2.50
2022-10-08T02:39:16.186Z,3.00
2022-10-08T02:44:32.298Z,2.58
2022-10-08T02:47:01.546Z,2.50
2022-10-08T02:49:37.701Z,2.92
2022-10-08T02:52:08.399Z,2.70
2022-10-08T02:54:40.074Z,3.03
2022-10-08T02:57:27.537Z,2.50
2022-10-08T02:59:54.114Z,2.60
2022-10-08T03:02:29.673Z,2.67
2022-10-08T03:05:05.482Z,2.80
2022-10-08T03:07:33.775Z,2.55
2022-10-08T03:10:05.725Z,2.50
2022-10-08T03:12:33.802Z,2.33
2022-10-08T03:15:00.585Z,2.88
2022-10-08T03:17:38.219Z,2.30
2022-10-08T03:20:07.452Z,2.58
2022-10-08T03:22:34.700Z,2.60
2022-10-08T03:25:01.248Z,2.38
2022-10-08T03:27:27.791Z,2.65
2022-10-08T03:29:57.254Z,2.53
2022-10-08T03:32:24.856Z,2.53
2022-10-08T03:34:51.897Z,2.97
2022-10-08T03:37:19.026Z,2.58
2022-10-08T03:39:45.891Z,2.30
2022-10-08T03:42:13.227Z,2.72
2022-10-08T03:44:39.731Z,2.78
2022-10-08T03:47:06.211Z,2.67
2022-10-08T03:49:32.688Z,2.30
2022-10-08T03:51:59.177Z,2.50
2022-10-08T03:54:25.887Z,2.35
2022-10-08T03:56:52.367Z,2.58
2022-10-08T03:59:18.850Z,2.28
2022-10-08T04:01:45.367Z,2.83
2022-10-08T04:04:11.868Z,3.10
2022-10-08T04:06:38.346Z,2.65
2022-10-08T04:09:04.814Z,3.45
2022-10-08T04:11:34.086Z,3.45
2022-10-08T04:14:00.656Z,3.67
2022-10-08T04:16:27.115Z,3.60
2022-10-08T04:18:53.559Z,3.15
2022-10-08T04:21:20.651Z,2.90
2022-10-08T04:23:49.564Z,2.60
2022-10-08T04:26:16.211Z,2.63
2022-10-08T04:28:44.456Z,2.08
2022-10-08T04:31:19.581Z,2.35
2022-10-08T04:33:47.222Z,2.40
2022-10-08T04:36:20.099Z,2.70
2022-10-08T04:38:47.393Z,2.60
2022-10-08T04:41:16.423Z,2.20
2022-10-08T04:43:44.764Z,2.40
2022-10-08T04:46:14.371Z,1.92
2022-10-08T04:48:49.877Z,2.20
2022-10-08T04:51:19.980Z,2.08
2022-10-08T04:53:46.605Z,1.80
2022-10-08T04:56:19.351Z,1.73
2022-10-08T04:58:46.693Z,2.00
2022-10-08T05:01:16.997Z,1.92
2022-10-08T05:06:12.206Z,1.83
2022-10-08T05:08:39.147Z,2.00
2022-10-08T05:11:06.069Z,2.20
2022-10-08T05:13:33.043Z,1.95
2022-10-08T05:16:08.238Z,1.70
2022-10-08T05:18:36.125Z,1.70
2022-10-08T05:21:08.394Z,1.90
2022-10-08T05:23:36.767Z,2.10
2022-10-08T05:26:46.620Z,1.92
2022-10-08T05:29:13.021Z,1.83
2022-10-08T05:31:39.878Z,1.92
2022-10-08T05:34:06.427Z,1.80
2022-10-08T05:36:34.192Z,1.90
2022-10-08T05:39:02.272Z,2.03
2022-10-08T05:41:31.836Z,2.17
2022-10-08T05:43:58.980Z,1.90
2022-10-08T05:46:28.221Z,2.20
2022-10-08T05:48:59.478Z,2.40
2022-10-08T05:51:27.073Z,2.40
2022-10-08T05:53:54.898Z,2.25
2022-10-08T05:56:23.840Z,1.92
2022-10-08T05:58:51.063Z,1.80
2022-10-08T06:01:20.800Z,1.88
2022-10-08T06:03:55.539Z,2.03
2022-10-08T06:06:23.295Z,1.90
2022-10-08T06:08:58.577Z,1.75
2022-10-08T06:11:26.546Z,1.70
2022-10-08T06:13:56.853Z,1.70
2022-10-08T06:16:23.973Z,1.75
2022-10-08T06:18:50.707Z,1.70
2022-10-08T06:21:20.237Z,2.10
2022-10-08T06:23:48.581Z,2.00
2022-10-08T06:26:15.430Z,2.00
2022-10-08T06:28:42.051Z,1.75
2022-10-08T06:31:08.838Z,1.90
2022-10-08T06:33:36.130Z,1.70
2022-10-08T06:36:08.178Z,1.70
2022-10-08T06:38:34.751Z,2.08
2022-10-08T06:41:02.003Z,1.70
2022-10-08T06:43:28.546Z,1.83
2022-10-08T06:45:56.579Z,1.80
2022-10-08T06:48:27.613Z,1.75
2022-10-08T06:51:17.486Z,1.65
2022-10-08T06:53:47.717Z,1.40
2022-10-08T06:58:43.648Z,1.60
2022-10-08T07:01:14.325Z,1.50
2022-10-08T07:03:41.737Z,1.60
2022-10-08T07:06:11.910Z,1.98
2022-10-08T07:08:39.380Z,1.70
2022-10-08T07:11:10.777Z,1.75
2022-10-08T07:13:38.549Z,1.70
2022-10-08T07:16:08.921Z,1.80
2022-10-08T07:18:38.128Z,1.60
2022-10-08T07:21:06.182Z,1.80
2022-10-08T07:23:33.042Z,1.50
2022-10-08T07:26:03.272Z,1.52
2022-10-08T07:31:09.770Z,1.30
2022-10-08T07:33:36.557Z,1.23
2022-10-08T07:36:11.134Z,1.40
2022-10-08T07:38:38.725Z,1.40
2022-10-08T07:41:08.539Z,1.45
2022-10-08T07:43:36.019Z,1.63
2022-10-08T07:46:05.634Z,1.45
2022-10-08T07:48:34.277Z,1.45
2022-10-08T07:51:12.552Z,1.73
2022-10-08T07:53:40.625Z,1.70
2022-10-08T07:56:08.402Z,1.85
2022-10-08T07:58:35.388Z,1.70
2022-10-08T08:01:03.856Z,1.58
2022-10-08T08:03:30.818Z,1.60
2022-10-08T08:06:01.952Z,1.90
2022-10-08T08:08:28.470Z,1.60
2022-10-08T08:10:59.059Z,1.77
2022-10-08T08:13:26.261Z,1.65
2022-10-08T08:15:57.593Z,1.40
2022-10-08T08:18:25.144Z,1.23
2022-10-08T08:21:11.074Z,1.55
2022-10-08T08:23:40.275Z,1.52
2022-10-08T08:26:10.560Z,1.37
2022-10-08T08:28:37.966Z,1.60
2022-10-08T08:31:07.384Z,1.60
2022-10-08T08:33:34.352Z,1.40
2022-10-08T08:36:01.020Z,1.25
2022-10-08T08:38:27.524Z,1.10
2022-10-08T08:40:57.345Z,1.58
2022-10-08T08:43:25.250Z,1.33
2022-10-08T08:45:51.844Z,1.30
2022-10-08T08:48:23.570Z,1.48
2022-10-08T08:50:53.558Z,1.60
2022-10-08T08:53:20.208Z,1.38
2022-10-08T08:55:50.373Z,1.40
2022-10-08T08:58:35.009Z,1.50
2022-10-08T09:01:14.607Z,1.50
2022-10-08T09:03:51.712Z,1.50
2022-10-08T09:06:22.764Z,1.70
2022-10-08T09:09:12.198Z,1.42
2022-10-08T09:11:39.537Z,1.70
2022-10-08T09:14:25.715Z,1.55
2022-10-08T09:16:52.730Z,1.60
2022-10-08T09:19:20.376Z,1.90
2022-10-08T09:21:46.882Z,1.60
2022-10-08T09:24:15.196Z,1.50
2022-10-08T09:26:43.400Z,1.60
2022-10-08T09:29:31.388Z,1.40
2022-10-08T09:31:58.001Z,1.70
2022-10-08T09:34:24.535Z,1.77
2022-10-08T09:37:04.505Z,1.60
2022-10-08T09:42:06.805Z,1.50
2022-10-08T09:44:43.623Z,1.40
2022-10-08T09:47:21.621Z,1.63
2022-10-08T09:50:19.034Z,1.50
2022-10-08T09:52:50.363Z,1.33
2022-10-08T09:55:21.292Z,1.40
2022-10-08T09:57:56.807Z,1.50
2022-10-08T10:00:26.846Z,1.48
2022-10-08T10:02:55.671Z,1.30
2022-10-08T10:05:27.456Z,1.33
2022-10-08T10:07:55.216Z,1.40
2022-10-08T10:10:45.194Z,2.38
2022-10-08T10:13:14.333Z,1.42
2022-10-08T10:15:46.674Z,1.60
2022-10-08T10:18:20.902Z,1.50
2022-10-08T10:20:52.798Z,1.40
2022-10-08T10:24:00.406Z,1.30
2022-10-08T10:26:35.018Z,1.10
2022-10-08T10:29:09.478Z,1.40
2022-10-08T10:31:43.557Z,2.35
2022-10-08T10:34:15.410Z,1.35
2022-10-08T10:36:48.612Z,1.30
2022-10-08T10:39:51.912Z,1.50
2022-10-08T10:42:34.421Z,1.40
2022-10-08T10:45:18.268Z,1.20
2022-10-08T10:47:45.108Z,1.50
2022-10-08T10:50:15.988Z,1.45
2022-10-08T10:53:07.977Z,1.30
2022-10-08T10:55:59.175Z,1.40
2022-10-08T11:02:03.471Z,1.40
2022-10-08T11:05:02.422Z,1.40
2022-10-08T11:07:49.077Z,1.40
2022-10-08T11:10:34.473Z,1.40
2022-10-08T11:13:44.282Z,1.60
2022-10-08T11:16:46.657Z,1.30
2022-10-08T11:19:46.646Z,1.40
2022-10-08T11:22:19.469Z,1.40
2022-10-08T11:25:14.226Z,1.40
2022-10-08T11:28:04.571Z,1.42
2022-10-08T11:31:12.684Z,1.20
2022-10-08T11:33:40.052Z,1.40
2022-10-08T11:36:18.855Z,1.33
2022-10-08T11:39:06.462Z,1.30
2022-10-08T11:41:46.455Z,1.50
2022-10-08T11:44:13.863Z,1.50
2022-10-08T11:46:41.795Z,1.50
2022-10-08T11:49:14.231Z,1.50
2022-10-08T11:51:45.785Z,1.60
2022-10-08T11:54:31.429Z,1.40
2022-10-08T11:57:13.596Z,1.70
2022-10-08T11:59:43.802Z,1.60
2022-10-08T12:02:28.298Z,1.48
2022-10-08T12:04:57.661Z,1.30
2022-10-08T12:07:30.067Z,1.40
2022-10-08T12:10:05.485Z,1.45
2022-10-08T12:12:50.346Z,1.40
2022-10-08T12:15:22.952Z,1.40
2022-10-08T12:17:55.341Z,1.60
2022-10-08T12:20:28.076Z,1.60
2022-10-08T12:23:20.548Z,1.48
2022-10-08T12:25:48.929Z,1.55
2022-10-08T12:28:21.786Z,1.50
2022-10-08T12:30:48.675Z,1.65
2022-10-08T12:33:16.544Z,1.70
2022-10-08T12:36:01.473Z,1.60
2022-10-08T12:38:55.589Z,1.60
2022-10-08T12:41:29.867Z,1.60
2022-10-08T12:44:46.711Z,1.85
2022-10-08T12:47:19.072Z,1.67
2022-10-08T12:50:02.292Z,1.70
2022-10-08T12:52:34.221Z,1.60
2022-10-08T12:55:02.282Z,1.70
2022-10-08T12:57:34.369Z,1.63
2022-10-08T13:00:06.874Z,1.60
2022-10-08T13:02:41.957Z,1.80
2022-10-08T13:05:30.896Z,1.60
2022-10-08T13:07:58.377Z,1.60
2022-10-08T13:10:28.548Z,1.60
2022-10-08T13:12:59.833Z,1.60
2022-10-08T13:15:26.379Z,1.50
2022-10-08T13:17:53.787Z,1.55
2022-10-08T13:20:22.555Z,1.70
2022-10-08T13:22:49.834Z,1.70
2022-10-08T13:25:37.345Z,1.75
2022-10-08T13:28:11.235Z,1.80
2022-10-08T13:30:38.221Z,1.77
2022-10-08T13:33:11.623Z,1.80
2022-10-08T13:35:39.875Z,1.90
2022-10-08T13:38:07.768Z,1.80
2022-10-08T13:40:34.802Z,2.17
2022-10-08T13:43:01.458Z,1.73
2022-10-08T13:45:39.076Z,1.70
2022-10-08T13:48:12.704Z,1.50
2022-10-08T13:50:46.639Z,1.65
2022-10-08T13:53:15.317Z,1.80
2022-10-08T13:55:44.476Z,1.90
2022-10-08T13:58:15.535Z,1.98
2022-10-08T14:00:43.610Z,1.80
2022-10-08T14:03:10.698Z,1.80
2022-10-08T14:05:41.702Z,1.60
2022-10-08T14:08:25.523Z,1.48
2022-10-08T14:10:58.116Z,1.92
2022-10-08T14:13:25.174Z,1.60
2022-10-08T14:15:51.854Z,1.60
2022-10-08T14:18:18.422Z,1.50
2022-10-08T14:20:45.589Z,1.50
2022-10-08T14:23:13.505Z,1.70
2022-10-08T14:25:40.036Z,1.75
2022-10-08T14:28:06.644Z,1.70
2022-10-08T14:30:33.193Z,1.80
2022-10-08T14:32:59.668Z,1.80
2022-10-08T14:35:26.214Z,1.75
2022-10-08T14:37:52.683Z,1.85
2022-10-08T14:40:21.627Z,2.00
2022-10-08T14:42:48.685Z,1.95
2022-10-08T14:45:15.612Z,1.73
2022-10-08T14:47:42.277Z,1.90
2022-10-08T14:50:09.028Z,2.13
2022-10-08T14:52:40.530Z,2.10
2022-10-08T14:55:10.549Z,2.20
2022-10-08T14:57:37.039Z,1.95
2022-10-08T15:00:04.870Z,2.20
2022-10-08T15:02:31.698Z,2.03
2022-10-08T15:04:58.216Z,2.00
2022-10-08T15:07:25.153Z,1.98
2022-10-08T15:09:51.654Z,1.77
2022-10-08T15:12:18.109Z,2.00
2022-10-08T15:14:44.682Z,2.30
2022-10-08T15:17:11.235Z,2.47
2022-10-08T15:19:37.923Z,2.70
2022-10-08T15:22:04.700Z,2.70
2022-10-08T15:24:31.176Z,2.92
2022-10-08T15:26:57.789Z,3.10
2022-10-08T15:29:24.314Z,3.25
2022-10-08T15:31:51.373Z,3.40
2022-10-08T15:34:20.114Z,3.28
2022-10-08T15:36:46.695Z,3.20
2022-10-08T15:39:15.728Z,2.95
2022-10-08T15:41:44.852Z,2.95
2022-10-08T15:44:19.031Z,2.83
2022-10-08T15:46:50.706Z,2.97
2022-10-08T15:49:18.758Z,3.40
2022-10-08T15:51:45.325Z,2.80
2022-10-08T15:54:11.955Z,3.13
2022-10-08T15:56:38.482Z,2.67
2022-10-08T15:59:05.000Z,2.85
2022-10-08T16:01:31.933Z,3.05
2022-10-08T16:04:00.009Z,2.72
2022-10-08T16:06:33.549Z,2.85
2022-10-08T16:09:01.648Z,2.60
2022-10-08T16:11:30.466Z,3.05
2022-10-08T16:14:04.047Z,2.60
2022-10-08T16:16:31.125Z,2.47
2022-10-08T16:19:04.141Z,2.53
2022-10-08T16:21:32.539Z,2.90
2022-10-08T16:23:59.518Z,2.45
2022-10-08T16:26:28.767Z,2.80
2022-10-08T16:29:01.693Z,2.50
2022-10-08T16:31:30.746Z,2.78
2022-10-08T16:33:59.781Z,2.57
2022-10-08T16:36:27.642Z,2.45
2022-10-08T16:38:55.163Z,2.60
2022-10-08T16:41:28.090Z,2.40
2022-10-08T16:43:57.499Z,2.33
2022-10-08T16:46:33.820Z,2.30
2022-10-08T16:49:28.300Z,2.40
2022-10-08T16:51:59.976Z,2.35
2022-10-08T16:54:26.817Z,2.25
2022-10-08T16:56:53.476Z,2.40
2022-10-08T16:59:26.497Z,2.80
2022-10-08T17:01:55.681Z,2.45
2022-10-08T17:04:24.695Z,2.60
2022-10-08T17:06:51.927Z,2.70
2022-10-08T17:09:18.453Z,2.60
2022-10-08T17:11:45.070Z,2.42
2022-10-08T17:14:12.038Z,2.30
2022-10-08T17:16:40.577Z,2.67
2022-10-08T17:19:07.137Z,2.78
2022-10-08T17:21:35.033Z,2.22
2022-10-08T17:24:02.906Z,2.28
2022-10-08T17:26:31.375Z,2.45
2022-10-08T17:29:02.724Z,2.40
2022-10-08T17:31:30.358Z,2.10
2022-10-08T17:33:57.108Z,2.30
2022-10-08T17:36:26.609Z,2.10
2022-10-08T17:38:57.952Z,2.25
2022-10-08T17:41:26.986Z,2.20
2022-10-08T17:43:55.834Z,2.50
2022-10-08T17:46:30.863Z,2.20
2022-10-08T17:49:01.240Z,2.25
2022-10-08T17:51:29.747Z,2.10
2022-10-08T17:54:05.040Z,2.30
2022-10-08T17:56:32.049Z,2.42
2022-10-08T17:58:59.245Z,2.20
2022-10-08T18:01:28.530Z,2.40
2022-10-08T18:03:58.263Z,2.30
2022-10-08T18:06:25.726Z,2.55
2022-10-08T18:08:56.602Z,2.30
2022-10-08T18:11:23.924Z,2.20
2022-10-08T18:13:50.615Z,2.40
2022-10-08T18:16:18.826Z,2.75
2022-10-08T18:18:46.621Z,2.50
2022-10-08T18:21:15.575Z,2.70
2022-10-08T18:23:43.249Z,2.80
2022-10-08T18:26:32.263Z,2.50
2022-10-08T18:29:02.614Z,2.70
2022-10-08T18:31:31.350Z,3.15
2022-10-08T18:34:03.454Z,2.95
2022-10-08T18:36:34.558Z,2.80
2022-10-08T18:39:04.176Z,2.83
2022-10-08T18:41:33.885Z,3.03
2022-10-08T18:44:00.986Z,3.20
2022-10-08T18:46:28.379Z,2.80
2022-10-08T18:48:55.797Z,3.35
2022-10-08T18:51:24.364Z,3.20
2022-10-08T18:53:52.306Z,3.20
2022-10-08T18:56:31.381Z,3.22
2022-10-08T18:58:59.331Z,3.30
2022-10-08T19:01:28.913Z,3.20
2022-10-08T19:03:57.526Z,3.08
2022-10-08T19:06:28.155Z,2.97
2022-10-08T19:08:55.923Z,3.20
2022-10-08T19:11:27.157Z,3.03
2022-10-08T19:13:54.097Z,2.90
2022-10-08T19:16:21.167Z,2.65
2022-10-08T19:19:06.667Z,2.63
2022-10-08T19:21:34.689Z,2.75
2022-10-08T19:24:01.842Z,2.63
2022-10-08T19:26:32.694Z,2.85
2022-10-08T19:28:59.503Z,3.00
2022-10-08T19:31:29.206Z,2.80
2022-10-08T19:33:58.544Z,3.03
2022-10-08T19:36:27.378Z,3.03
2022-10-08T19:38:58.848Z,3.08
2022-10-08T19:41:25.995Z,3.17
2022-10-08T19:43:54.044Z,3.00
2022-10-08T19:46:21.936Z,3.13
2022-10-08T19:48:49.953Z,2.92
2022-10-08T19:51:17.277Z,3.00
2022-10-08T19:53:44.141Z,2.92
2022-10-08T19:56:12.019Z,3.10
2022-10-08T19:58:45.002Z,5.63
2022-10-08T20:01:19.611Z,3.17
2022-10-08T20:03:47.499Z,3.40
2022-10-08T20:06:24.354Z,3.30
2022-10-08T20:08:55.991Z,3.88
2022-10-08T20:11:23.034Z,3.25
2022-10-08T20:13:51.229Z,3.20
2022-10-08T20:16:20.241Z,3.08
2022-10-08T20:18:52.551Z,3.13
2022-10-08T20:21:20.529Z,2.83
2022-10-08T20:23:47.393Z,3.17
2022-10-08T20:26:16.663Z,3.10
2022-10-08T20:28:45.146Z,3.10
2022-10-08T20:31:15.224Z,2.90
2022-10-08T20:33:43.579Z,2.78
2022-10-08T20:36:12.987Z,2.70
2022-10-08T20:38:40.393Z,2.72
2022-10-08T20:41:07.913Z,2.53
2022-10-08T20:43:36.758Z,2.63
2022-10-08T20:46:13.261Z,12.82
2022-10-08T20:48:41.932Z,2.60
2022-10-08T20:51:14.254Z,2.70
2022-10-08T20:53:46.624Z,2.78
2022-10-08T20:56:14.455Z,2.60
2022-10-08T20:58:41.082Z,2.47
2022-10-08T21:01:10.194Z,2.40
2022-10-08T21:03:37.879Z,2.77
2022-10-08T21:06:06.303Z,2.30
2022-10-08T21:08:37.001Z,2.47
2022-10-08T21:11:05.427Z,2.20
2022-10-08T21:13:32.455Z,2.42
2022-10-08T21:16:12.315Z,2.55
2022-10-08T21:18:40.357Z,3.15
2022-10-08T21:21:13.882Z,2.25
2022-10-08T21:23:41.651Z,2.60
2022-10-08T21:26:18.583Z,2.40
2022-10-08T21:28:46.463Z,2.45
2022-10-08T21:31:14.169Z,2.80
2022-10-08T21:33:45.831Z,2.67
2022-10-08T21:36:18.032Z,2.63
2022-10-08T21:38:44.950Z,2.50
2022-10-08T21:41:13.860Z,2.58
2022-10-08T21:43:48.164Z,2.55
2022-10-08T21:46:18.137Z,2.58
2022-10-08T21:48:45.041Z,2.55
2022-10-08T21:51:14.855Z,2.70
2022-10-08T21:53:45.507Z,2.50
2022-10-08T21:56:14.466Z,2.67
2022-10-08T21:58:46.152Z,3.03
2022-10-08T22:01:49.554Z,2.72
2022-10-08T22:04:22.053Z,2.50
2022-10-08T22:06:53.898Z,2.55
2022-10-08T22:09:21.763Z,2.30
2022-10-08T22:11:49.572Z,2.20
2022-10-08T22:14:17.306Z,2.45
2022-10-08T22:16:43.883Z,2.50
2022-10-08T22:19:10.888Z,2.22
2022-10-08T22:21:37.936Z,2.47
2022-10-08T22:24:04.855Z,2.78
2022-10-08T22:26:43.002Z,2.58
2022-10-08T22:29:10.310Z,2.63
2022-10-08T22:31:37.185Z,2.47
2022-10-08T22:34:03.953Z,2.45
2022-10-08T22:36:32.448Z,2.90
2022-10-08T22:38:59.811Z,3.22
2022-10-08T22:41:29.072Z,2.60
2022-10-08T22:43:56.136Z,2.30
2022-10-08T22:46:28.453Z,2.33
2022-10-08T22:49:00.020Z,3.00
2022-10-08T22:51:27.579Z,2.80
2022-10-08T22:53:54.063Z,2.38
2022-10-08T22:56:23.524Z,2.40
2022-10-08T22:58:50.688Z,2.50
2022-10-08T23:01:19.860Z,2.50
2022-10-08T23:03:47.810Z,2.23
2022-10-08T23:06:17.502Z,2.80
2022-10-08T23:08:45.830Z,2.50
2022-10-08T23:11:14.049Z,2.40
2022-10-08T23:13:41.218Z,2.50
2022-10-08T23:16:10.283Z,2.25
2022-10-08T23:18:39.468Z,2.40
2022-10-08T23:21:15.555Z,2.50
2022-10-08T23:23:43.944Z,2.38
2022-10-08T23:26:10.892Z,2.78
2022-10-08T23:28:38.764Z,2.67
2022-10-08T23:31:14.551Z,2.53
2022-10-08T23:33:43.253Z,2.30
2022-10-08T23:36:11.969Z,2.60
2022-10-08T23:38:38.679Z,2.58
2022-10-08T23:41:07.603Z,2.75
2022-10-08T23:43:42.298Z,2.50
2022-10-08T23:46:10.920Z,2.50
2022-10-08T23:48:37.980Z,2.70
2022-10-08T23:51:06.264Z,2.80
2022-10-08T23:53:33.388Z,2.55
2022-10-08T23:56:00.155Z,2.78
2022-10-08T23:58:26.782Z,2.70
